sensor_id;sensor_type;location;lat;lon;timestamp;pressure;altitude;pressure_sealevel;temperature;humidity
72587;BME280;60621;49.576;11.024;2023-02-15T00:00:40;99870.09;;;0.46;86.14
72587;BME280;60621;49.576;11.024;2023-02-15T00:01:42;99864.31;;;0.34;86.87
72587;BME280;60621;49.576;11.024;2023-02-15T00:02:44;99870.28;;;0.34;86.84
72587;BME280;60621;49.576;11.024;2023-02-15T00:03:47;99869.28;;;0.40;86.85
72587;BME280;60621;49.576;11.024;2023-02-15T00:04:49;99864.69;;;0.53;86.95
72587;BME280;60621;49.576;11.024;2023-02-15T00:05:51;99861.56;;;0.50;86.40
72587;BME280;60621;49.576;11.024;2023-02-15T00:06:52;99865.78;;;0.62;86.52
72587;BME280;60621;49.576;11.024;2023-02-15T00:07:54;99862.22;;;0.73;86.23
72587;BME280;60621;49.576;11.024;2023-02-15T00:08:55;99867.88;;;0.65;85.72
72587;BME280;60621;49.576;11.024;2023-02-15T00:09:57;99870.22;;;0.66;85.93
72587;BME280;60621;49.576;11.024;2023-02-15T00:12:07;99861.41;;;0.67;85.48
72587;BME280;60621;49.576;11.024;2023-02-15T00:13:08;99867.19;;;0.80;85.53
72587;BME280;60621;49.576;11.024;2023-02-15T00:14:12;99863.88;;;0.89;85.17
72587;BME280;60621;49.576;11.024;2023-02-15T00:15:14;99865.41;;;0.85;85.02
72587;BME280;60621;49.576;11.024;2023-02-15T00:16:15;99863.66;;;0.96;84.83
72587;BME280;60621;49.576;11.024;2023-02-15T00:17:17;99861.03;;;0.91;84.46
72587;BME280;60621;49.576;11.024;2023-02-15T00:18:18;99856.38;;;0.98;84.55
72587;BME280;60621;49.576;11.024;2023-02-15T00:19:21;99859.00;;;1.08;84.44
72587;BME280;60621;49.576;11.024;2023-02-15T00:20:22;99858.75;;;1.05;84.13
72587;BME280;60621;49.576;11.024;2023-02-15T00:21:24;99846.31;;;1.17;83.94
72587;BME280;60621;49.576;11.024;2023-02-15T00:22:25;99851.56;;;1.27;83.73
72587;BME280;60621;49.576;11.024;2023-02-15T00:23:27;99855.00;;;1.38;83.49
72587;BME280;60621;49.576;11.024;2023-02-15T00:24:29;99854.25;;;1.47;82.54
72587;BME280;60621;49.576;11.024;2023-02-15T00:25:30;99852.16;;;1.54;82.49
72587;BME280;60621;49.576;11.024;2023-02-15T00:26:32;99850.63;;;1.59;82.00
72587;BME280;60621;49.576;11.024;2023-02-15T00:27:34;99846.47;;;1.63;81.53
72587;BME280;60621;49.576;11.024;2023-02-15T00:28:36;99846.72;;;1.61;81.50
72587;BME280;60621;49.576;11.024;2023-02-15T00:29:37;99847.00;;;1.70;81.43
72587;BME280;60621;49.576;11.024;2023-02-15T00:30:39;99852.19;;;1.75;80.82
72587;BME280;60621;49.576;11.024;2023-02-15T00:31:41;99844.94;;;1.82;80.72
72587;BME280;60621;49.576;11.024;2023-02-15T00:32:42;99851.97;;;1.87;79.99
72587;BME280;60621;49.576;11.024;2023-02-15T00:33:44;99847.28;;;1.89;80.28
72587;BME280;60621;49.576;11.024;2023-02-15T00:34:45;99849.09;;;1.93;80.03
72587;BME280;60621;49.576;11.024;2023-02-15T00:35:47;99849.66;;;1.95;79.01
72587;BME280;60621;49.576;11.024;2023-02-15T00:36:49;99848.03;;;1.69;79.64
72587;BME280;60621;49.576;11.024;2023-02-15T00:37:51;99852.13;;;1.44;81.11
72587;BME280;60621;49.576;11.024;2023-02-15T00:38:53;99849.00;;;1.42;81.50
72587;BME280;60621;49.576;11.024;2023-02-15T00:39:55;99851.09;;;1.50;81.61
72587;BME280;60621;49.576;11.024;2023-02-15T00:40:58;99851.41;;;1.59;81.31
72587;BME280;60621;49.576;11.024;2023-02-15T00:42:00;99850.91;;;1.62;80.87
72587;BME280;60621;49.576;11.024;2023-02-15T00:43:01;99849.34;;;1.71;80.93
72587;BME280;60621;49.576;11.024;2023-02-15T00:44:03;99851.19;;;1.81;80.38
72587;BME280;60621;49.576;11.024;2023-02-15T00:45:05;99851.44;;;1.79;79.87
72587;BME280;60621;49.576;11.024;2023-02-15T00:46:06;99849.09;;;1.88;79.88
72587;BME280;60621;49.576;11.024;2023-02-15T00:47:08;99847.03;;;1.90;79.35
72587;BME280;60621;49.576;11.024;2023-02-15T00:48:09;99847.03;;;1.90;79.29
72587;BME280;60621;49.576;11.024;2023-02-15T00:49:11;99843.13;;;1.83;79.31
72587;BME280;60621;49.576;11.024;2023-02-15T00:50:12;99848.03;;;1.74;79.76
72587;BME280;60621;49.576;11.024;2023-02-15T00:51:14;99849.09;;;1.83;79.71
72587;BME280;60621;49.576;11.024;2023-02-15T00:52:16;99849.88;;;1.78;79.32
72587;BME280;60621;49.576;11.024;2023-02-15T00:53:18;99844.69;;;1.84;79.65
72587;BME280;60621;49.576;11.024;2023-02-15T00:54:19;99844.69;;;1.89;79.20
72587;BME280;60621;49.576;11.024;2023-02-15T00:55:21;99838.19;;;1.91;78.55
72587;BME280;60621;49.576;11.024;2023-02-15T00:56:22;99838.69;;;1.88;79.37
72587;BME280;60621;49.576;11.024;2023-02-15T00:57:24;99838.19;;;1.91;79.19
72587;BME280;60621;49.576;11.024;2023-02-15T00:58:25;99834.81;;;1.91;79.48
72587;BME280;60621;49.576;11.024;2023-02-15T00:59:27;99834.81;;;1.91;79.19
72587;BME280;60621;49.576;11.024;2023-02-15T01:00:28;99835.03;;;1.94;79.49
72587;BME280;60621;49.576;11.024;2023-02-15T01:01:30;99831.94;;;2.02;79.01
72587;BME280;60621;49.576;11.024;2023-02-15T01:02:31;99828.28;;;1.98;78.60
72587;BME280;60621;49.576;11.024;2023-02-15T01:03:33;99834.03;;;2.05;78.77
72587;BME280;60621;49.576;11.024;2023-02-15T01:04:35;99838.69;;;1.98;78.27
72587;BME280;60621;49.576;11.024;2023-02-15T01:05:37;99828.81;;;1.90;78.50
72587;BME280;60621;49.576;11.024;2023-02-15T01:06:38;99830.38;;;1.91;79.19
72587;BME280;60621;49.576;11.024;2023-02-15T01:07:40;99835.81;;;1.90;78.71
72587;BME280;60621;49.576;11.024;2023-02-15T01:08:42;99834.81;;;2.01;78.60
72587;BME280;60621;49.576;11.024;2023-02-15T01:09:44;99829.06;;;2.04;78.07
72587;BME280;60621;49.576;11.024;2023-02-15T01:10:45;99830.31;;;1.61;79.39
72587;BME280;60621;49.576;11.024;2023-02-15T01:11:48;99836.34;;;1.66;80.37
72587;BME280;60621;49.576;11.024;2023-02-15T01:12:50;99831.91;;;1.67;79.66
72587;BME280;60621;49.576;11.024;2023-02-15T01:13:54;99837.13;;;1.72;79.77
72587;BME280;60621;49.576;11.024;2023-02-15T01:14:56;99834.81;;;1.81;79.63
72587;BME280;60621;49.576;11.024;2023-02-15T01:15:58;99833.50;;;1.83;78.94
72587;BME280;60621;49.576;11.024;2023-02-15T01:17:00;99830.13;;;1.93;78.08
72587;BME280;60621;49.576;11.024;2023-02-15T01:18:01;99830.09;;;1.88;78.25
72587;BME280;60621;49.576;11.024;2023-02-15T01:19:03;99831.44;;;1.90;78.65
72587;BME280;60621;49.576;11.024;2023-02-15T01:20:05;99834.03;;;1.90;78.26
72587;BME280;60621;49.576;11.024;2023-02-15T01:21:13;99836.63;;;1.90;78.49
72587;BME280;60621;49.576;11.024;2023-02-15T01:22:16;99833.25;;;2.00;77.94
72587;BME280;60621;49.576;11.024;2023-02-15T01:23:17;99828.56;;;1.97;77.38
72587;BME280;60621;49.576;11.024;2023-02-15T01:24:19;99830.88;;;1.93;77.92
72587;BME280;60621;49.576;11.024;2023-02-15T01:25:22;99827.25;;;1.94;77.60
72587;BME280;60621;49.576;11.024;2023-02-15T01:26:23;99831.16;;;2.02;77.36
72587;BME280;60621;49.576;11.024;2023-02-15T01:27:25;99822.84;;;2.00;76.68
72587;BME280;60621;49.576;11.024;2023-02-15T01:28:26;99821.53;;;1.92;77.08
72587;BME280;60621;49.576;11.024;2023-02-15T01:29:28;99828.28;;;1.88;77.07
72587;BME280;60621;49.576;11.024;2023-02-15T01:30:30;99822.81;;;1.85;77.77
72587;BME280;60621;49.576;11.024;2023-02-15T01:31:31;99823.84;;;1.84;78.24
72587;BME280;60621;49.576;11.024;2023-02-15T01:32:33;99827.25;;;1.89;78.09
72587;BME280;60621;49.576;11.024;2023-02-15T01:33:35;99820.75;;;1.92;77.50
72587;BME280;60621;49.576;11.024;2023-02-15T01:34:37;99817.88;;;1.93;77.76
72587;BME280;60621;49.576;11.024;2023-02-15T01:35:39;99824.41;;;1.96;77.29
72587;BME280;60621;49.576;11.024;2023-02-15T01:36:40;99821.47;;;1.57;77.78
72587;BME280;60621;49.576;11.024;2023-02-15T01:37:41;99819.41;;;1.59;78.61
72587;BME280;60621;49.576;11.024;2023-02-15T01:38:43;99820.69;;;1.51;78.07
72587;BME280;60621;49.576;11.024;2023-02-15T01:39:44;99815.50;;;1.56;78.43
72587;BME280;60621;49.576;11.024;2023-02-15T01:40:46;99806.13;;;1.50;78.77
72587;BME280;60621;49.576;11.024;2023-02-15T01:41:48;99808.47;;;1.57;78.98
72587;BME280;60621;49.576;11.024;2023-02-15T01:42:51;99807.44;;;1.52;78.58
72587;BME280;60621;49.576;11.024;2023-02-15T01:43:56;99810.75;;;1.33;79.32
72587;BME280;60621;49.576;11.024;2023-02-15T01:45:01;99803.94;;;1.16;80.54
72587;BME280;60621;49.576;11.024;2023-02-15T01:46:03;99806.84;;;1.25;80.49
72587;BME280;60621;49.576;11.024;2023-02-15T01:47:05;99801.94;;;1.34;80.15
72587;BME280;60621;49.576;11.024;2023-02-15T01:48:21;99802.94;;;1.33;80.02
72587;BME280;60621;49.576;11.024;2023-02-15T01:49:26;99801.69;;;1.45;80.14
72587;BME280;60621;49.576;11.024;2023-02-15T01:50:30;99803.00;;;1.43;79.76
72587;BME280;60621;49.576;11.024;2023-02-15T01:51:34;99793.66;;;1.52;79.66
72587;BME280;60621;49.576;11.024;2023-02-15T01:52:41;99786.88;;;1.61;78.91
72587;BME280;60621;49.576;11.024;2023-02-15T01:53:48;99798.88;;;1.62;78.23
72587;BME280;60621;49.576;11.024;2023-02-15T01:54:57;99795.22;;;1.63;78.93
72587;BME280;60621;49.576;11.024;2023-02-15T01:56:07;99782.22;;;1.63;78.81
72587;BME280;60621;49.576;11.024;2023-02-15T01:57:18;99791.56;;;1.64;78.61
72587;BME280;60621;49.576;11.024;2023-02-15T01:58:21;99783.75;;;1.59;78.82
72587;BME280;60621;49.576;11.024;2023-02-15T01:59:25;99786.09;;;1.56;78.36
72587;BME280;60621;49.576;11.024;2023-02-15T02:00:27;99790.03;;;1.63;78.90
72587;BME280;60621;49.576;11.024;2023-02-15T02:01:28;99784.81;;;1.68;77.85
72587;BME280;60621;49.576;11.024;2023-02-15T02:02:31;99783.75;;;1.59;78.11
72587;BME280;60621;49.576;11.024;2023-02-15T02:03:42;99783.25;;;1.62;78.47
72587;BME280;60621;49.576;11.024;2023-02-15T02:04:49;99786.38;;;1.64;78.66
72587;BME280;60621;49.576;11.024;2023-02-15T02:05:51;99775.97;;;1.59;78.93
72587;BME280;60621;49.576;11.024;2023-02-15T02:06:53;99780.91;;;1.56;78.88
72587;BME280;60621;49.576;11.024;2023-02-15T02:07:57;99775.41;;;1.42;79.26
72587;BME280;60621;49.576;11.024;2023-02-15T02:08:59;99770.94;;;1.12;79.70
72587;BME280;60621;49.576;11.024;2023-02-15T02:10:02;99781.00;;;0.93;81.02
72587;BME280;60621;49.576;11.024;2023-02-15T02:11:09;99774.47;;;0.85;81.24
72587;BME280;60621;49.576;11.024;2023-02-15T02:12:11;99776.75;;;0.71;81.87
72587;BME280;60621;49.576;11.024;2023-02-15T02:13:13;99777.78;;;0.75;82.04
72587;BME280;60621;49.576;11.024;2023-02-15T02:14:15;99780.16;;;0.77;81.97
72587;BME280;60621;49.576;11.024;2023-02-15T02:15:18;99775.41;;;0.59;82.38
72587;BME280;60621;49.576;11.024;2023-02-15T02:16:27;99773.09;;;0.62;83.13
72587;BME280;60621;49.576;11.024;2023-02-15T02:19:01;99770.59;;;0.88;82.49
72587;BME280;60621;49.576;11.024;2023-02-15T02:20:28;99772.75;;;1.06;81.99
72587;BME280;60621;49.576;11.024;2023-02-15T02:22:03;99766.19;;;0.93;81.49
72587;BME280;60621;49.576;11.024;2023-02-15T02:23:22;99771.88;;;0.85;81.74
72587;BME280;60621;49.576;11.024;2023-02-15T02:29:53;99769.56;;;0.99;80.99
72587;BME280;60621;49.576;11.024;2023-02-15T02:33:08;99774.59;;;1.21;80.94
72587;BME280;60621;49.576;11.024;2023-02-15T02:34:26;99772.56;;;1.33;79.87
72587;BME280;60621;49.576;11.024;2023-02-15T02:37:12;99767.09;;;1.30;80.04
72587;BME280;60621;49.576;11.024;2023-02-15T02:38:36;99768.38;;;1.32;79.42
72587;BME280;60621;49.576;11.024;2023-02-15T02:42:39;99760.81;;;1.25;79.24
72587;BME280;60621;49.576;11.024;2023-02-15T02:45:25;99763.69;;;1.19;79.55
72587;BME280;60621;49.576;11.024;2023-02-15T02:46:33;99766.75;;;1.06;79.94
72587;BME280;60621;49.576;11.024;2023-02-15T02:47:46;99770.44;;;1.20;79.98
72587;BME280;60621;49.576;11.024;2023-02-15T02:48:49;99758.75;;;1.27;79.79
72587;BME280;60621;49.576;11.024;2023-02-15T02:50:06;99765.25;;;1.20;79.42
72587;BME280;60621;49.576;11.024;2023-02-15T02:51:08;99762.63;;;1.10;80.00
72587;BME280;60621;49.576;11.024;2023-02-15T02:52:36;99758.69;;;1.07;79.93
72587;BME280;60621;49.576;11.024;2023-02-15T02:53:38;99763.13;;;1.07;80.06
72587;BME280;60621;49.576;11.024;2023-02-15T02:54:40;99760.00;;;1.10;79.98
72587;BME280;60621;49.576;11.024;2023-02-15T02:55:47;99751.97;;;1.16;80.16
72587;BME280;60621;49.576;11.024;2023-02-15T02:56:52;99757.16;;;1.16;79.71
72587;BME280;60621;49.576;11.024;2023-02-15T02:59:16;99747.06;;;1.25;79.05
72587;BME280;60621;49.576;11.024;2023-02-15T03:00:23;99751.91;;;0.96;79.51
72587;BME280;60621;49.576;11.024;2023-02-15T03:01:34;99756.84;;;0.97;80.64
72587;BME280;60621;49.576;11.024;2023-02-15T03:02:41;99751.38;;;0.94;80.20
72587;BME280;60621;49.576;11.024;2023-02-15T03:03:48;99754.75;;;0.99;80.10
72587;BME280;60621;49.576;11.024;2023-02-15T03:04:55;99749.06;;;0.97;79.95
72587;BME280;60621;49.576;11.024;2023-02-15T03:06:02;99753.75;;;1.00;80.05
72587;BME280;60621;49.576;11.024;2023-02-15T03:07:11;99745.03;;;0.64;81.11
72587;BME280;60621;49.576;11.024;2023-02-15T03:08:16;99744.44;;;0.52;82.07
72587;BME280;60621;49.576;11.024;2023-02-15T03:09:33;99750.31;;;0.32;82.39
72587;BME280;60621;49.576;11.024;2023-02-15T03:10:44;99750.09;;;0.39;83.13
72587;BME280;60621;49.576;11.024;2023-02-15T03:11:45;99755.09;;;0.50;82.90
72587;BME280;60621;49.576;11.024;2023-02-15T03:12:48;99743.91;;;0.45;82.65
72587;BME280;60621;49.576;11.024;2023-02-15T03:13:50;99745.47;;;0.46;82.41
72587;BME280;60621;49.576;11.024;2023-02-15T03:14:58;99742.84;;;0.41;82.49
72587;BME280;60621;49.576;11.024;2023-02-15T03:16:04;99744.41;;;0.47;82.65
72587;BME280;60621;49.576;11.024;2023-02-15T03:17:27;99745.72;;;0.44;82.47
72587;BME280;60621;49.576;11.024;2023-02-15T03:18:36;99745.00;;;0.59;82.35
72587;BME280;60621;49.576;11.024;2023-02-15T03:19:40;99746.09;;;0.68;81.95
72587;BME280;60621;49.576;11.024;2023-02-15T03:20:42;99751.84;;;0.81;81.73
72587;BME280;60621;49.576;11.024;2023-02-15T03:21:53;99750.28;;;0.80;81.47
72587;BME280;60621;49.576;11.024;2023-02-15T03:23:10;99752.09;;;0.79;81.59
72587;BME280;60621;49.576;11.024;2023-02-15T03:24:19;99752.09;;;0.74;81.11
72587;BME280;60621;49.576;11.024;2023-02-15T03:25:42;99749.50;;;0.79;81.36
72587;BME280;60621;49.576;11.024;2023-02-15T03:26:47;99753.97;;;0.89;80.57
72587;BME280;60621;49.576;11.024;2023-02-15T03:28:01;99748.78;;;0.99;80.64
72587;BME280;60621;49.576;11.024;2023-02-15T03:29:05;99753.47;;;0.97;80.34
72587;BME280;60621;49.576;11.024;2023-02-15T03:30:09;99752.38;;;0.77;81.04
72587;BME280;60621;49.576;11.024;2023-02-15T03:31:13;99753.44;;;0.82;81.42
72587;BME280;60621;49.576;11.024;2023-02-15T03:32:17;99752.16;;;0.94;80.73
72587;BME280;60621;49.576;11.024;2023-02-15T03:33:21;99758.16;;;1.00;80.08
72587;BME280;60621;49.576;11.024;2023-02-15T03:34:25;99768.84;;;1.14;79.83
72587;BME280;60621;49.576;11.024;2023-02-15T03:35:33;99759.28;;;1.24;79.52
72587;BME280;60621;49.576;11.024;2023-02-15T03:36:44;99757.19;;;1.26;79.02
72587;BME280;60621;49.576;11.024;2023-02-15T03:37:53;99753.50;;;1.12;78.72
72587;BME280;60621;49.576;11.024;2023-02-15T03:39:10;99759.50;;;1.18;79.04
72587;BME280;60621;49.576;11.024;2023-02-15T03:40:28;99755.88;;;1.19;78.81
72587;BME280;60621;49.576;11.024;2023-02-15T03:42:13;99752.72;;;1.01;79.49
72587;BME280;60621;49.576;11.024;2023-02-15T03:43:34;99746.25;;;1.14;79.39
72587;BME280;60621;49.576;11.024;2023-02-15T03:45:11;99758.41;;;0.98;79.33
72587;BME280;60621;49.576;11.024;2023-02-15T03:46:25;99759.72;;;1.01;80.24
72587;BME280;60621;49.576;11.024;2023-02-15T03:47:31;99753.22;;;1.09;79.88
72587;BME280;60621;49.576;11.024;2023-02-15T03:48:39;99758.84;;;0.80;80.13
72587;BME280;60621;49.576;11.024;2023-02-15T03:49:50;99753.38;;;0.71;81.26
72587;BME280;60621;49.576;11.024;2023-02-15T03:51:00;99752.66;;;0.86;81.41
72587;BME280;60621;49.576;11.024;2023-02-15T03:52:25;99757.38;;;0.99;80.86
72587;BME280;60621;49.576;11.024;2023-02-15T03:53:29;99754.81;;;1.05;80.21
72587;BME280;60621;49.576;11.024;2023-02-15T03:54:33;99750.06;;;0.86;80.70
72587;BME280;60621;49.576;11.024;2023-02-15T03:55:49;99755.00;;;0.88;80.73
72587;BME280;60621;49.576;11.024;2023-02-15T03:56:51;99748.44;;;0.75;80.40
72587;BME280;60621;49.576;11.024;2023-02-15T03:58:12;99751.88;;;0.86;81.10
72587;BME280;60621;49.576;11.024;2023-02-15T03:59:32;99752.41;;;0.88;80.91
72587;BME280;60621;49.576;11.024;2023-02-15T04:00:58;99746.72;;;1.01;80.71
72587;BME280;60621;49.576;11.024;2023-02-15T04:02:24;99751.66;;;0.40;82.07
72587;BME280;60621;49.576;11.024;2023-02-15T04:03:52;99759.84;;;0.21;83.36
72587;BME280;60621;49.576;11.024;2023-02-15T04:04:54;99760.06;;;0.10;84.22
72587;BME280;60621;49.576;11.024;2023-02-15T04:05:56;99760.16;;;0.25;84.62
72587;BME280;60621;49.576;11.024;2023-02-15T04:06:58;99756.28;;;0.33;84.19
72587;BME280;60621;49.576;11.024;2023-02-15T04:07:59;99758.38;;;0.36;83.74
72587;BME280;60621;49.576;11.024;2023-02-15T04:09:01;99764.06;;;0.33;83.52
72587;BME280;60621;49.576;11.024;2023-02-15T04:10:21;99762.06;;;0.40;83.45
72587;BME280;60621;49.576;11.024;2023-02-15T04:11:41;99766.75;;;0.43;83.26
72587;BME280;60621;49.576;11.024;2023-02-15T04:12:42;99772.69;;;0.38;83.40
72587;BME280;60621;49.576;11.024;2023-02-15T04:13:44;99771.66;;;0.39;83.27
72587;BME280;60621;49.576;11.024;2023-02-15T04:14:45;99776.66;;;0.56;83.13
72587;BME280;60621;49.576;11.024;2023-02-15T04:16:05;99763.38;;;0.47;82.43
72587;BME280;60621;49.576;11.024;2023-02-15T04:17:09;99774.94;;;0.24;83.13
72587;BME280;60621;49.576;11.024;2023-02-15T04:18:10;99773.59;;;0.17;83.57
72587;BME280;60621;49.576;11.024;2023-02-15T04:19:12;99771.59;;;0.29;84.10
72587;BME280;60621;49.576;11.024;2023-02-15T04:20:32;99776.06;;;0.39;83.24
72587;BME280;60621;49.576;11.024;2023-02-15T04:21:52;99768.50;;;0.37;83.21
72587;BME280;60621;49.576;11.024;2023-02-15T04:23:12;99769.03;;;0.34;82.80
72587;BME280;60621;49.576;11.024;2023-02-15T04:24:32;99774.75;;;0.36;82.60
72587;BME280;60621;49.576;11.024;2023-02-15T04:25:52;99772.69;;;0.38;82.88
72587;BME280;60621;49.576;11.024;2023-02-15T04:26:54;99764.38;;;0.41;82.72
72587;BME280;60621;49.576;11.024;2023-02-15T04:27:55;99774.44;;;0.33;82.60
72587;BME280;60621;49.576;11.024;2023-02-15T04:28:57;99765.88;;;0.32;83.33
72587;BME280;60621;49.576;11.024;2023-02-15T04:29:58;99759.50;;;0.50;83.20
72587;BME280;60621;49.576;11.024;2023-02-15T04:31:00;99763.69;;;0.56;82.11
72587;BME280;60621;49.576;11.024;2023-02-15T04:32:01;99771.41;;;0.41;82.05
72587;BME280;60621;49.576;11.024;2023-02-15T04:33:03;99769.78;;;0.30;82.82
72587;BME280;60621;49.576;11.024;2023-02-15T04:34:05;99768.41;;;0.22;83.22
72587;BME280;60621;49.576;11.024;2023-02-15T04:35:06;99769.50;;;0.26;83.40
72587;BME280;60621;49.576;11.024;2023-02-15T04:36:08;99772.94;;;0.42;83.19
72587;BME280;60621;49.576;11.024;2023-02-15T04:37:09;99781.25;;;0.39;82.84
72587;BME280;60621;49.576;11.024;2023-02-15T04:38:11;99773.19;;;0.35;82.79
72587;BME280;60621;49.576;11.024;2023-02-15T04:39:14;99775.06;;;0.45;82.99
72587;BME280;60621;49.576;11.024;2023-02-15T04:40:16;99769.38;;;0.48;82.59
72587;BME280;60621;49.576;11.024;2023-02-15T04:41:20;99770.19;;;0.59;82.29
72587;BME280;60621;49.576;11.024;2023-02-15T04:42:21;99770.25;;;0.69;81.88
72587;BME280;60621;49.576;11.024;2023-02-15T04:43:23;99769.50;;;0.79;81.52
72587;BME280;60621;49.576;11.024;2023-02-15T04:44:24;99764.00;;;0.65;81.08
72587;BME280;60621;49.576;11.024;2023-02-15T04:45:26;99764.72;;;0.55;82.10
72587;BME280;60621;49.576;11.024;2023-02-15T04:46:28;99765.00;;;0.59;81.43
72587;BME280;60621;49.576;11.024;2023-02-15T04:47:30;99758.47;;;0.51;81.82
72587;BME280;60621;49.576;11.024;2023-02-15T04:48:31;99762.06;;;0.45;82.05
72587;BME280;60621;49.576;11.024;2023-02-15T04:49:33;99759.97;;;0.42;82.71
72587;BME280;60621;49.576;11.024;2023-02-15T04:50:34;99769.03;;;0.34;82.83
72587;BME280;60621;49.576;11.024;2023-02-15T04:51:36;99768.25;;;0.34;83.08
72587;BME280;60621;49.576;11.024;2023-02-15T04:52:37;99763.38;;;0.47;83.27
72587;BME280;60621;49.576;11.024;2023-02-15T04:53:39;99759.06;;;0.63;82.69
72587;BME280;60621;49.576;11.024;2023-02-15T04:54:41;99760.66;;;0.74;81.70
72587;BME280;60621;49.576;11.024;2023-02-15T04:55:42;99753.34;;;0.66;81.47
72587;BME280;60621;49.576;11.024;2023-02-15T04:56:44;99749.47;;;0.69;81.67
72587;BME280;60621;49.576;11.024;2023-02-15T04:57:46;99757.75;;;0.66;81.54
72587;BME280;60621;49.576;11.024;2023-02-15T04:58:48;99754.41;;;0.75;81.74
72587;BME280;60621;49.576;11.024;2023-02-15T04:59:49;99745.75;;;0.55;81.40
72587;BME280;60621;49.576;11.024;2023-02-15T05:00:55;99751.69;;;0.45;82.07
72587;BME280;60621;49.576;11.024;2023-02-15T05:01:56;99748.09;;;0.56;81.83
72587;BME280;60621;49.576;11.024;2023-02-15T05:02:58;99739.78;;;0.54;81.67
72587;BME280;60621;49.576;11.024;2023-02-15T05:03:59;99741.38;;;0.60;81.88
72587;BME280;60621;49.576;11.024;2023-02-15T05:05:01;99739.81;;;0.59;81.41
72587;BME280;60621;49.576;11.024;2023-02-15T05:06:03;99738.31;;;0.68;81.80
72587;BME280;60621;49.576;11.024;2023-02-15T05:07:05;99744.78;;;0.66;81.48
72587;BME280;60621;49.576;11.024;2023-02-15T05:08:06;99738.97;;;0.43;81.76
72587;BME280;60621;49.576;11.024;2023-02-15T05:09:08;99737.69;;;0.51;82.50
72587;BME280;60621;49.576;11.024;2023-02-15T05:10:09;99734.34;;;0.61;82.02
72587;BME280;60621;49.576;11.024;2023-02-15T05:11:11;99732.63;;;0.76;81.70
72587;BME280;60621;49.576;11.024;2023-02-15T05:12:12;99735.00;;;0.88;81.05
72587;BME280;60621;49.576;11.024;2023-02-15T05:13:14;99728.94;;;0.67;80.68
72587;BME280;60621;49.576;11.024;2023-02-15T05:14:16;99729.66;;;0.53;81.60
72587;BME280;60621;49.576;11.024;2023-02-15T05:15:17;99724.63;;;0.36;81.69
72587;BME280;60621;49.576;11.024;2023-02-15T05:16:19;99720.03;;;0.48;81.77
72587;BME280;60621;49.576;11.024;2023-02-15T05:17:20;99725.31;;;0.68;80.72
72587;BME280;60621;49.576;11.024;2023-02-15T05:18:22;99730.03;;;0.82;80.63
72587;BME280;60621;49.576;11.024;2023-02-15T05:19:24;99731.91;;;0.91;80.03
72587;BME280;60621;49.576;11.024;2023-02-15T05:20:25;99728.53;;;0.96;79.11
72587;BME280;60621;49.576;11.024;2023-02-15T05:21:27;99737.09;;;0.96;78.87
72587;BME280;60621;49.576;11.024;2023-02-15T05:22:29;99730.88;;;0.97;79.13
72587;BME280;60621;49.576;11.024;2023-02-15T05:23:30;99732.16;;;0.95;78.95
72587;BME280;60621;49.576;11.024;2023-02-15T05:24:32;99732.16;;;0.95;79.22
72587;BME280;60621;49.576;11.024;2023-02-15T05:25:52;99734.50;;;0.96;79.45
72587;BME280;60621;49.576;11.024;2023-02-15T05:27:12;99734.22;;;0.88;79.19
72587;BME280;60621;49.576;11.024;2023-02-15T05:28:33;99734.66;;;0.69;79.72
72587;BME280;60621;49.576;11.024;2023-02-15T05:29:35;99735.97;;;0.67;80.15
72587;BME280;60621;49.576;11.024;2023-02-15T05:30:36;99737.53;;;0.73;80.70
72587;BME280;60621;49.576;11.024;2023-02-15T05:31:38;99734.47;;;0.81;80.17
72587;BME280;60621;49.576;11.024;2023-02-15T05:32:40;99728.75;;;0.89;79.90
72587;BME280;60621;49.576;11.024;2023-02-15T05:33:43;99736.00;;;0.82;79.61
72587;BME280;60621;49.576;11.024;2023-02-15T05:34:44;99730.56;;;0.84;79.86
72587;BME280;60621;49.576;11.024;2023-02-15T05:35:46;99734.75;;;0.95;79.35
72587;BME280;60621;49.576;11.024;2023-02-15T05:36:47;99727.78;;;1.06;78.68
72587;BME280;60621;49.576;11.024;2023-02-15T05:37:49;99731.94;;;1.12;78.33
72587;BME280;60621;49.576;11.024;2023-02-15T05:38:50;99728.28;;;1.13;78.44
72587;BME280;60621;49.576;11.024;2023-02-15T05:39:52;99737.16;;;1.17;78.22
72587;BME280;60621;49.576;11.024;2023-02-15T05:40:53;99732.72;;;1.12;78.08
72587;BME280;60621;49.576;11.024;2023-02-15T05:41:58;99734.03;;;1.10;78.15
72587;BME280;60621;49.576;11.024;2023-02-15T05:43:00;99723.88;;;1.08;78.06
72587;BME280;60621;49.576;11.024;2023-02-15T05:44:02;99727.78;;;1.11;78.24
72587;BME280;60621;49.576;11.024;2023-02-15T05:45:04;99728.06;;;1.14;77.99
72587;BME280;60621;49.576;11.024;2023-02-15T05:46:07;99719.47;;;1.14;77.94
72587;BME280;60621;49.576;11.024;2023-02-15T05:47:09;99719.22;;;1.10;77.85
72587;BME280;60621;49.576;11.024;2023-02-15T05:48:10;99721.81;;;1.15;78.08
72587;BME280;60621;49.576;11.024;2023-02-15T05:49:12;99721.03;;;1.10;77.68
72587;BME280;60621;49.576;11.024;2023-02-15T05:50:14;99722.03;;;1.03;77.88
72587;BME280;60621;49.576;11.024;2023-02-15T05:51:15;99721.03;;;1.05;78.17
72587;BME280;60621;49.576;11.024;2023-02-15T05:52:18;99718.16;;;1.06;78.37
72587;BME280;60621;49.576;11.024;2023-02-15T05:53:19;99709.31;;;1.02;78.29
72587;BME280;60621;49.576;11.024;2023-02-15T05:54:21;99712.41;;;0.94;78.51
72587;BME280;60621;49.576;11.024;2023-02-15T05:55:22;99718.38;;;0.99;78.60
72587;BME280;60621;49.576;11.024;2023-02-15T05:56:24;99718.41;;;1.05;78.71
72587;BME280;60621;49.576;11.024;2023-02-15T05:57:26;99718.94;;;1.07;78.41
72587;BME280;60621;49.576;11.024;2023-02-15T05:58:32;99713.47;;;1.08;78.35
72587;BME280;60621;49.576;11.024;2023-02-15T05:59:34;99712.47;;;1.14;78.15
72587;BME280;60621;49.576;11.024;2023-02-15T06:00:36;99716.91;;;1.24;77.42
72587;BME280;60621;49.576;11.024;2023-02-15T06:01:38;99712.47;;;1.19;76.92
72587;BME280;60621;49.576;11.024;2023-02-15T06:02:39;99711.16;;;1.12;77.65